createdAt,value
2022-11-28T00:02:01.235Z,4.82
2022-11-28T00:07:06.802Z,4.53
2022-11-28T00:12:14.815Z,4.00
2022-11-28T00:17:20.173Z,4.53
2022-11-28T00:22:27.984Z,4.93
2022-11-28T00:27:36.995Z,4.47
2022-11-28T00:32:42.315Z,3.95
2022-11-28T00:37:47.619Z,3.80
2022-11-28T00:42:55.502Z,4.60
2022-11-28T00:48:00.778Z,4.30
2022-11-28T00:53:06.155Z,4.13
2022-11-28T00:58:14.354Z,4.50
2022-11-28T01:03:19.846Z,4.53
2022-11-28T01:08:25.188Z,4.82
2022-11-28T01:13:33.392Z,4.00
2022-11-28T01:18:39.156Z,4.50
2022-11-28T01:23:44.545Z,4.38
2022-11-28T01:28:53.217Z,4.47
2022-11-28T01:33:59.213Z,4.40
2022-11-28T01:39:04.563Z,4.80
2022-11-28T01:44:41.397Z,4.25
2022-11-28T01:49:51.511Z,4.65
2022-11-28T01:55:02.345Z,4.30
2022-11-28T02:00:11.490Z,4.35
2022-11-28T02:05:23.919Z,5.20
2022-11-28T02:10:31.595Z,5.13
2022-11-28T02:15:54.003Z,5.22
2022-11-28T02:21:31.982Z,4.90
2022-11-28T02:27:11.725Z,4.90
2022-11-28T02:32:34.756Z,5.57
2022-11-28T02:37:47.742Z,4.53
2022-11-28T02:43:03.685Z,5.72
2022-11-28T02:48:16.253Z,4.87
2022-11-28T02:53:24.867Z,5.22
2022-11-28T02:58:30.315Z,5.13
2022-11-28T03:03:54.906Z,4.97
2022-11-28T03:09:18.034Z,5.25
2022-11-28T03:14:34.274Z,5.10
2022-11-28T03:19:46.977Z,5.32
2022-11-28T03:24:56.368Z,5.27
2022-11-28T03:30:05.950Z,4.55
2022-11-28T03:35:18.665Z,4.93
2022-11-28T03:40:29.807Z,5.47
2022-11-28T03:45:38.872Z,5.50
2022-11-28T03:50:51.108Z,5.23
2022-11-28T03:56:00.976Z,5.68
2022-11-28T04:01:28.952Z,5.10
2022-11-28T04:06:42.633Z,5.47
2022-11-28T04:11:52.547Z,5.20
2022-11-28T04:17:03.560Z,4.87
2022-11-28T04:22:18.282Z,6.50
2022-11-28T04:27:26.412Z,5.28
2022-11-28T04:32:35.838Z,4.93
2022-11-28T04:37:48.834Z,6.00
2022-11-28T04:42:58.890Z,5.87
2022-11-28T04:48:04.879Z,5.30
2022-11-28T04:53:18.308Z,5.30
2022-11-28T04:58:27.981Z,5.03
2022-11-28T05:03:36.799Z,6.18
2022-11-28T05:08:47.901Z,6.13
2022-11-28T05:13:53.408Z,4.85
2022-11-28T05:18:58.861Z,5.10
2022-11-28T05:24:07.752Z,5.73
2022-11-28T05:29:13.361Z,5.88
2022-11-28T05:34:18.725Z,6.03
2022-11-28T05:39:27.093Z,5.50
2022-11-28T05:44:32.467Z,4.93
2022-11-28T05:49:37.949Z,5.25
2022-11-28T05:54:46.404Z,5.20
2022-11-28T05:59:51.752Z,5.63
2022-11-28T06:04:57.125Z,5.22
2022-11-28T06:10:05.761Z,5.55
2022-11-28T06:15:12.459Z,6.27
2022-11-28T06:20:17.843Z,5.65
2022-11-28T06:25:25.841Z,5.27
2022-11-28T06:30:31.265Z,5.97
2022-11-28T06:35:36.758Z,5.50
2022-11-28T06:40:44.758Z,5.83
2022-11-28T06:45:50.462Z,5.93
2022-11-28T06:50:56.734Z,5.73
2022-11-28T06:56:07.682Z,7.10
2022-11-28T07:01:15.547Z,6.22
2022-11-28T07:06:22.185Z,6.37
2022-11-28T07:11:31.962Z,6.18
2022-11-28T07:16:38.303Z,5.63
2022-11-28T07:21:46.343Z,6.10
2022-11-28T07:26:54.341Z,5.72
2022-11-28T07:31:59.740Z,5.67
2022-11-28T07:37:11.082Z,6.03
2022-11-28T07:42:19.144Z,6.03
2022-11-28T07:47:41.360Z,6.43
2022-11-28T07:52:46.753Z,6.05
2022-11-28T07:57:54.770Z,6.67
2022-11-28T08:03:00.214Z,6.15
2022-11-28T08:08:06.025Z,6.40
2022-11-28T08:13:14.596Z,6.05
2022-11-28T08:18:20.361Z,5.93
2022-11-28T08:23:28.547Z,6.03
2022-11-28T08:28:37.346Z,5.72
2022-11-28T08:33:43.060Z,5.93
2022-11-28T08:39:03.480Z,6.07
2022-11-28T08:44:17.776Z,7.55
2022-11-28T08:49:23.861Z,8.83
2022-11-28T08:54:29.224Z,9.00
2022-11-28T08:59:38.993Z,10.07
2022-11-28T09:04:44.896Z,9.90
2022-11-28T09:09:50.492Z,11.30
2022-11-28T09:14:58.825Z,9.63
2022-11-28T09:20:04.944Z,9.45
2022-11-28T09:25:11.976Z,8.80
2022-11-28T09:30:22.526Z,8.93
2022-11-28T09:35:28.094Z,8.50
2022-11-28T09:40:39.398Z,8.27
2022-11-28T09:45:48.425Z,7.97
2022-11-28T09:51:03.663Z,7.03
2022-11-28T09:56:18.617Z,6.80
2022-11-28T10:01:44.655Z,6.80
2022-11-28T10:19:56.941Z,6.93
2022-11-28T10:25:36.836Z,5.97
2022-11-28T10:31:04.643Z,6.65
2022-11-28T10:37:13.372Z,6.90
2022-11-28T10:48:45.144Z,6.20
2022-11-28T10:54:09.185Z,6.88
2022-11-28T10:59:31.640Z,6.75
2022-11-28T11:04:43.646Z,6.70
2022-11-28T11:09:54.683Z,6.85
2022-11-28T11:16:01.273Z,6.97
2022-11-28T11:21:16.015Z,7.20
2022-11-28T11:26:51.805Z,6.10
2022-11-28T11:38:00.482Z,7.30
2022-11-28T11:43:36.526Z,7.10
2022-11-28T11:48:57.615Z,7.30
2022-11-28T11:54:49.275Z,7.05
2022-11-28T12:00:44.085Z,7.00
2022-11-28T12:06:15.249Z,6.93
2022-11-28T12:17:58.330Z,7.50
2022-11-28T12:23:31.901Z,7.72
2022-11-28T12:29:00.372Z,7.60
2022-11-28T12:34:30.667Z,7.85
2022-11-28T12:40:12.683Z,7.97
2022-11-28T12:45:45.790Z,8.88
2022-11-28T12:51:16.758Z,8.38
2022-11-28T12:57:24.165Z,8.07
2022-11-28T13:03:21.348Z,6.88
2022-11-28T13:08:48.940Z,6.93
2022-11-28T13:14:07.797Z,7.97
2022-11-28T13:25:27.233Z,7.20
2022-11-28T13:49:14.336Z,5.88
2022-11-28T14:00:21.157Z,5.72
2022-11-28T14:05:53.933Z,6.23
2022-11-28T14:11:37.636Z,5.68
2022-11-28T14:17:15.709Z,5.95
2022-11-28T14:22:36.348Z,5.97
2022-11-28T14:27:51.883Z,6.10
2022-11-28T14:45:24.816Z,6.07
2022-11-28T15:04:18.023Z,6.70
2022-11-28T15:09:28.984Z,5.82
2022-11-28T15:14:38.970Z,6.57
2022-11-28T15:19:49.739Z,6.73
2022-11-28T15:24:56.834Z,6.35
2022-11-28T15:30:07.116Z,7.10
2022-11-28T15:35:16.339Z,7.32
2022-11-28T15:40:28.496Z,7.20
2022-11-28T15:45:38.160Z,7.40
2022-11-28T15:50:59.021Z,8.05
2022-11-28T15:56:15.326Z,7.47
2022-11-28T16:01:28.105Z,8.18
2022-11-28T16:06:38.046Z,8.25
2022-11-28T16:11:52.271Z,8.63
2022-11-28T16:17:01.875Z,8.23
2022-11-28T16:22:12.685Z,7.90
2022-11-28T16:27:34.049Z,7.60
2022-11-28T16:32:58.512Z,8.40
2022-11-28T16:38:33.314Z,7.80
2022-11-28T16:43:42.188Z,8.48
2022-11-28T16:49:21.296Z,8.60
2022-11-28T16:54:51.524Z,7.95
2022-11-28T16:59:57.750Z,7.72
2022-11-28T17:05:06.222Z,7.40
2022-11-28T17:10:15.396Z,7.53
2022-11-28T17:15:23.707Z,8.10
2022-11-28T17:20:31.710Z,7.70
2022-11-28T17:25:37.054Z,8.13
2022-11-28T17:30:42.740Z,7.73
2022-11-28T17:35:52.697Z,7.60
2022-11-28T17:40:58.143Z,8.13
2022-11-28T17:46:04.657Z,8.65
2022-11-28T17:51:12.933Z,8.38
2022-11-28T17:56:21.463Z,8.47
2022-11-28T18:01:29.824Z,8.68
2022-11-28T18:06:41.899Z,8.50
2022-11-28T18:11:48.115Z,8.60
2022-11-28T18:16:53.643Z,9.82
2022-11-28T18:22:02.288Z,9.80
2022-11-28T18:27:08.272Z,10.50
2022-11-28T18:32:13.768Z,9.57
2022-11-28T18:37:21.939Z,9.63
2022-11-28T18:42:27.483Z,10.60
2022-11-28T18:47:36.459Z,10.83
2022-11-28T18:52:44.602Z,10.55
2022-11-28T18:57:50.031Z,10.37
2022-11-28T19:02:57.048Z,10.95
2022-11-28T19:08:06.596Z,10.85
2022-11-28T19:13:12.327Z,10.30
2022-11-28T19:18:17.682Z,10.63
2022-11-28T19:23:25.880Z,10.90
2022-11-28T19:28:31.445Z,10.60
2022-11-28T19:33:37.374Z,10.63
2022-11-28T19:38:45.466Z,11.10
2022-11-28T19:43:51.708Z,11.15
2022-11-28T19:48:57.439Z,11.23
2022-11-28T19:54:05.393Z,10.00
2022-11-28T19:59:13.295Z,9.70
2022-11-28T20:04:20.403Z,9.47
2022-11-28T20:09:29.464Z,9.23
2022-11-28T20:14:35.618Z,10.10
2022-11-28T20:19:42.633Z,9.90
2022-11-28T20:24:51.435Z,9.40
2022-11-28T20:29:56.870Z,9.27
2022-11-28T20:35:02.299Z,9.35
2022-11-28T20:40:13.396Z,9.17
2022-11-28T20:45:19.086Z,10.32
2022-11-28T20:50:24.621Z,9.48
2022-11-28T20:55:33.381Z,10.30
2022-11-28T21:00:39.446Z,10.15
2022-11-28T21:05:44.950Z,9.30
2022-11-28T21:10:53.004Z,10.10
2022-11-28T21:15:58.666Z,8.73
2022-11-28T21:21:09.821Z,9.93
2022-11-28T21:26:19.845Z,9.38
2022-11-28T21:31:27.197Z,9.20
2022-11-28T21:36:33.466Z,9.60
2022-11-28T21:41:41.501Z,9.30
2022-11-28T21:46:46.976Z,9.70
2022-11-28T21:51:52.533Z,10.18
2022-11-28T21:57:00.979Z,9.40
2022-11-28T22:02:11.516Z,9.50
2022-11-28T22:07:17.677Z,9.70
2022-11-28T22:12:25.719Z,10.13
2022-11-28T22:17:32.709Z,9.43
2022-11-28T22:22:38.253Z,9.60
2022-11-28T22:27:46.208Z,9.63
2022-11-28T22:32:51.572Z,10.15
2022-11-28T22:37:57.052Z,10.27
2022-11-28T22:43:05.111Z,9.68
2022-11-28T22:48:10.727Z,9.83
2022-11-28T22:53:16.059Z,9.07
2022-11-28T22:58:24.374Z,8.38
2022-11-28T23:03:29.970Z,9.27
2022-11-28T23:08:36.623Z,9.38
2022-11-28T23:13:48.018Z,9.03
2022-11-28T23:18:55.676Z,9.48
2022-11-28T23:24:01.207Z,9.07
2022-11-28T23:29:09.248Z,8.77
2022-11-28T23:34:14.892Z,10.07
2022-11-28T23:39:23.353Z,9.17
2022-11-28T23:44:31.395Z,8.77
2022-11-28T23:49:36.766Z,9.55
2022-11-28T23:54:42.298Z,9.83
2022-11-28T23:59:50.332Z,9.43
